DLH8C LSZH-EDDF
Flight info
| Callsign | DLH8C |
|---|---|
| Flight time | 0h 46m |
| Altitude | 20000 |
| Route | DEGES Z1 SUDEN T164 KOVAN T163 SPESA SPESA5B |
| Aircraft | A320/M-SDE2E3FGIJ1LORWXYZ/HB1 |
Departure
| Time | 2026-05-05 17:29 |
|---|---|
| Airport | Zürich Airport (LSZH) |
Arrival
| Time | 2026-05-05 18:15 |
|---|---|
| Airport | Frankfurt Main Airport (EDDF) |
| Time | Latitude | Longitude | Altitude | Speed | Heading |
|---|---|---|---|---|---|
| 2026-05-05 17:02 | 47.46177 | 8.55492 | 1403 ft | 0 kts | 186° |
| 2026-05-05 17:21 | 47.46193 | 8.55495 | 1406 ft | 4 kts | 189° |
| 2026-05-05 17:21 | 47.46219 | 8.55501 | 1403 ft | 4 kts | 179° |
| 2026-05-05 17:22 | 47.46258 | 8.55464 | 1403 ft | 4 kts | 111° |
| 2026-05-05 17:22 | 47.46262 | 8.55426 | 1407 ft | 4 kts | 89° |
| 2026-05-05 17:22 | 47.46262 | 8.55408 | 1404 ft | 0 kts | 96° |
| 2026-05-05 17:25 | 47.46261 | 8.55415 | 1409 ft | 3 kts | 96° |
| 2026-05-05 17:25 | 47.46257 | 8.55491 | 1397 ft | 8 kts | 95° |
| 2026-05-05 17:25 | 47.46249 | 8.55602 | 1401 ft | 13 kts | 96° |
| 2026-05-05 17:26 | 47.46238 | 8.55751 | 1401 ft | 14 kts | 96° |
| 2026-05-05 17:26 | 47.46228 | 8.55882 | 1403 ft | 12 kts | 96° |
| 2026-05-05 17:26 | 47.46183 | 8.56006 | 1407 ft | 18 kts | 179° |
| 2026-05-05 17:26 | 47.46056 | 8.55984 | 1407 ft | 17 kts | 186° |
| 2026-05-05 17:27 | 47.45935 | 8.55958 | 1407 ft | 17 kts | 197° |
| 2026-05-05 17:27 | 47.45848 | 8.55965 | 1410 ft | 11 kts | 119° |
| 2026-05-05 17:27 | 47.45835 | 8.56079 | 1412 ft | 12 kts | 95° |
| 2026-05-05 17:27 | 47.45826 | 8.56206 | 1414 ft | 13 kts | 97° |
| 2026-05-05 17:28 | 47.45798 | 8.56286 | 1416 ft | 6 kts | 153° |
| 2026-05-05 17:28 | 47.45766 | 8.56292 | 1418 ft | 6 kts | 185° |
| 2026-05-05 17:28 | 47.45719 | 8.56271 | 1414 ft | 7 kts | 225° |
| 2026-05-05 17:28 | 47.45719 | 8.56232 | 1416 ft | 1 kts | 274° |
| 2026-05-05 17:29 | 47.45736 | 8.55974 | 1413 ft | 63 kts | 276° |
| 2026-05-05 17:29 | 47.45807 | 8.54969 | 1400 ft | 130 kts | 275° |
| 2026-05-05 17:29 | 47.45904 | 8.53571 | 1978 ft | 135 kts | 275° |
| 2026-05-05 17:29 | 47.46009 | 8.52201 | 2742 ft | 137 kts | 275° |
| 2026-05-05 17:30 | 47.46121 | 8.50659 | 3026 ft | 164 kts | 274° |
| 2026-05-05 17:30 | 47.46239 | 8.48868 | 3417 ft | 185 kts | 272° |
| 2026-05-05 17:30 | 47.45977 | 8.46938 | 3799 ft | 204 kts | 239° |
| 2026-05-05 17:30 | 47.45187 | 8.45139 | 4592 ft | 210 kts | 239° |
| 2026-05-05 17:31 | 47.44443 | 8.43280 | 5521 ft | 211 kts | 241° |
| 2026-05-05 17:31 | 47.43740 | 8.41405 | 6401 ft | 212 kts | 241° |
| 2026-05-05 17:31 | 47.43042 | 8.39474 | 7295 ft | 214 kts | 242° |
| 2026-05-05 17:31 | 47.42177 | 8.37681 | 8203 ft | 217 kts | 225° |
| 2026-05-05 17:32 | 47.40921 | 8.36421 | 9098 ft | 222 kts | 205° |
| 2026-05-05 17:32 | 47.39391 | 8.35956 | 9949 ft | 230 kts | 183° |
| 2026-05-05 17:32 | 47.37803 | 8.36438 | 10723 ft | 240 kts | 160° |
| 2026-05-05 17:32 | 47.36422 | 8.37912 | 11498 ft | 253 kts | 135° |
| 2026-05-05 17:33 | 47.35567 | 8.40233 | 12271 ft | 267 kts | 107° |
| 2026-05-05 17:33 | 47.35523 | 8.43004 | 13012 ft | 278 kts | 77° |
| 2026-05-05 17:33 | 47.36412 | 8.45579 | 13764 ft | 283 kts | 46° |
| 2026-05-05 17:33 | 47.37964 | 8.47280 | 14421 ft | 284 kts | 27° |
| 2026-05-05 17:34 | 47.39687 | 8.48735 | 15122 ft | 287 kts | 27° |
| 2026-05-05 17:34 | 47.41431 | 8.50198 | 15830 ft | 290 kts | 27° |
| 2026-05-05 17:34 | 47.43193 | 8.51678 | 16524 ft | 293 kts | 28° |
| 2026-05-05 17:34 | 47.44925 | 8.53283 | 17217 ft | 297 kts | 41° |
| 2026-05-05 17:35 | 47.46154 | 8.55721 | 17802 ft | 303 kts | 70° |
| 2026-05-05 17:35 | 47.46640 | 8.58825 | 18002 ft | 320 kts | 89° |
| 2026-05-05 17:35 | 47.46682 | 8.62217 | 18182 ft | 341 kts | 95° |
| 2026-05-05 17:35 | 47.46561 | 8.65825 | 18318 ft | 362 kts | 96° |
| 2026-05-05 17:36 | 47.46440 | 8.69634 | 18552 ft | 378 kts | 95° |
| 2026-05-05 17:36 | 47.46404 | 8.73556 | 19062 ft | 384 kts | 92° |
| 2026-05-05 17:36 | 47.46463 | 8.77526 | 19623 ft | 388 kts | 90° |
| 2026-05-05 17:36 | 47.46544 | 8.81523 | 19830 ft | 388 kts | 94° |
| 2026-05-05 17:37 | 47.46242 | 8.85411 | 19880 ft | 372 kts | 103° |
| 2026-05-05 17:37 | 47.45747 | 8.89097 | 19874 ft | 361 kts | 104° |
| 2026-05-05 17:37 | 47.45235 | 8.92710 | 19887 ft | 359 kts | 105° |
| 2026-05-05 17:37 | 47.44714 | 8.96317 | 19876 ft | 359 kts | 105° |
| 2026-05-05 17:38 | 47.44192 | 8.99916 | 19876 ft | 358 kts | 105° |
| 2026-05-05 17:38 | 47.43671 | 9.03516 | 19877 ft | 358 kts | 105° |
| 2026-05-05 17:38 | 47.43151 | 9.07109 | 19874 ft | 358 kts | 105° |
| 2026-05-05 17:38 | 47.42628 | 9.10703 | 19881 ft | 358 kts | 105° |
| 2026-05-05 17:39 | 47.42111 | 9.14303 | 19875 ft | 358 kts | 103° |
| 2026-05-05 17:39 | 47.41920 | 9.17985 | 19877 ft | 362 kts | 90° |
| 2026-05-05 17:39 | 47.42283 | 9.21667 | 19845 ft | 365 kts | 76° |
| 2026-05-05 17:39 | 47.43179 | 9.25134 | 19854 ft | 368 kts | 63° |
| 2026-05-05 17:40 | 47.44449 | 9.28416 | 19856 ft | 368 kts | 61° |
| 2026-05-05 17:40 | 47.45727 | 9.31694 | 19854 ft | 369 kts | 61° |
| 2026-05-05 17:40 | 47.47010 | 9.34975 | 19848 ft | 369 kts | 58° |
| 2026-05-05 17:40 | 47.48589 | 9.37970 | 19852 ft | 370 kts | 45° |
| 2026-05-05 17:41 | 47.50554 | 9.40401 | 19858 ft | 369 kts | 32° |
| 2026-05-05 17:41 | 47.52815 | 9.42170 | 19856 ft | 368 kts | 20° |
| 2026-05-05 17:41 | 47.55230 | 9.43390 | 19852 ft | 367 kts | 17° |
| 2026-05-05 17:41 | 47.57662 | 9.44545 | 19845 ft | 366 kts | 13° |
| 2026-05-05 17:42 | 47.60163 | 9.45190 | 19850 ft | 364 kts | 2° |
| 2026-05-05 17:42 | 47.62693 | 9.45340 | 19856 ft | 364 kts | 360° |
| 2026-05-05 17:42 | 47.65222 | 9.45471 | 19851 ft | 364 kts | 0° |
| 2026-05-05 17:42 | 47.67756 | 9.45607 | 19851 ft | 364 kts | 0° |
| 2026-05-05 17:43 | 47.70290 | 9.45745 | 19851 ft | 365 kts | 0° |
| 2026-05-05 17:43 | 47.72822 | 9.45889 | 19854 ft | 365 kts | 0° |
| 2026-05-05 17:43 | 47.75362 | 9.46028 | 19859 ft | 365 kts | 0° |
| 2026-05-05 17:43 | 47.77897 | 9.46165 | 19854 ft | 365 kts | 0° |
| 2026-05-05 17:44 | 47.80436 | 9.46299 | 19854 ft | 365 kts | 360° |
| 2026-05-05 17:44 | 47.82974 | 9.46366 | 19858 ft | 365 kts | 358° |
| 2026-05-05 17:44 | 47.85513 | 9.46363 | 19852 ft | 365 kts | 358° |
| 2026-05-05 17:44 | 47.88049 | 9.46330 | 19849 ft | 365 kts | 358° |
| 2026-05-05 17:45 | 47.90590 | 9.46292 | 19845 ft | 365 kts | 358° |
| 2026-05-05 17:45 | 47.93135 | 9.46263 | 19840 ft | 365 kts | 358° |
| 2026-05-05 17:45 | 47.95676 | 9.46248 | 19846 ft | 365 kts | 358° |
| 2026-05-05 17:45 | 47.98220 | 9.46239 | 19845 ft | 365 kts | 358° |
| 2026-05-05 17:46 | 48.00758 | 9.46231 | 19841 ft | 365 kts | 358° |
| 2026-05-05 17:46 | 48.03270 | 9.46226 | 19837 ft | 366 kts | 358° |
| 2026-05-05 17:46 | 48.05816 | 9.46222 | 19833 ft | 366 kts | 359° |
| 2026-05-05 17:46 | 48.08395 | 9.46217 | 19839 ft | 366 kts | 359° |
| 2026-05-05 17:47 | 48.10941 | 9.46212 | 19835 ft | 366 kts | 359° |
| 2026-05-05 17:47 | 48.13490 | 9.46164 | 19835 ft | 366 kts | 357° |
| 2026-05-05 17:47 | 48.16034 | 9.46035 | 19833 ft | 366 kts | 356° |
| 2026-05-05 17:47 | 48.18577 | 9.45863 | 19829 ft | 366 kts | 356° |
| 2026-05-05 17:48 | 48.21125 | 9.45674 | 19837 ft | 366 kts | 355° |
| 2026-05-05 17:48 | 48.23669 | 9.45485 | 19828 ft | 366 kts | 356° |
| 2026-05-05 17:48 | 48.26178 | 9.45306 | 19851 ft | 366 kts | 355° |
| 2026-05-05 17:48 | 48.28723 | 9.45136 | 19853 ft | 366 kts | 356° |
| 2026-05-05 17:49 | 48.31264 | 9.44972 | 19843 ft | 366 kts | 356° |
| 2026-05-05 17:49 | 48.33805 | 9.44812 | 19846 ft | 366 kts | 356° |
| 2026-05-05 17:49 | 48.36348 | 9.44650 | 19843 ft | 365 kts | 356° |
| 2026-05-05 17:49 | 48.38921 | 9.44485 | 19841 ft | 365 kts | 356° |
| 2026-05-05 17:50 | 48.41427 | 9.44328 | 19844 ft | 365 kts | 356° |
| 2026-05-05 17:50 | 48.43995 | 9.44166 | 19840 ft | 365 kts | 356° |
| 2026-05-05 17:50 | 48.46538 | 9.44007 | 19841 ft | 365 kts | 356° |
| 2026-05-05 17:50 | 48.49039 | 9.43850 | 19837 ft | 365 kts | 356° |
| 2026-05-05 17:51 | 48.51615 | 9.43684 | 19833 ft | 365 kts | 356° |
| 2026-05-05 17:51 | 48.54147 | 9.43521 | 19841 ft | 365 kts | 356° |
| 2026-05-05 17:51 | 48.56688 | 9.43355 | 19842 ft | 365 kts | 356° |
| 2026-05-05 17:51 | 48.59228 | 9.43188 | 19835 ft | 365 kts | 356° |
| 2026-05-05 17:52 | 48.61733 | 9.43026 | 19836 ft | 365 kts | 356° |
| 2026-05-05 17:52 | 48.64276 | 9.42865 | 19841 ft | 365 kts | 356° |
| 2026-05-05 17:52 | 48.66845 | 9.42702 | 19837 ft | 366 kts | 356° |
| 2026-05-05 17:52 | 48.69390 | 9.42542 | 19840 ft | 366 kts | 356° |
| 2026-05-05 17:53 | 48.71933 | 9.42379 | 19841 ft | 366 kts | 356° |
| 2026-05-05 17:53 | 48.74474 | 9.42214 | 19843 ft | 366 kts | 356° |
| 2026-05-05 17:53 | 48.77013 | 9.42048 | 19843 ft | 366 kts | 356° |
| 2026-05-05 17:53 | 48.79552 | 9.41885 | 19846 ft | 366 kts | 356° |
| 2026-05-05 17:54 | 48.82062 | 9.41727 | 19847 ft | 366 kts | 356° |
| 2026-05-05 17:54 | 48.84602 | 9.41564 | 19842 ft | 366 kts | 356° |
| 2026-05-05 17:54 | 48.87145 | 9.41398 | 19843 ft | 365 kts | 356° |
| 2026-05-05 17:54 | 48.89682 | 9.41227 | 19835 ft | 365 kts | 356° |
| 2026-05-05 17:55 | 48.92225 | 9.41059 | 19843 ft | 365 kts | 356° |
| 2026-05-05 17:55 | 48.94762 | 9.40893 | 19840 ft | 365 kts | 356° |
| 2026-05-05 17:55 | 48.97300 | 9.40730 | 19847 ft | 365 kts | 356° |
| 2026-05-05 17:55 | 48.99837 | 9.40566 | 19850 ft | 364 kts | 356° |
| 2026-05-05 17:56 | 49.02369 | 9.40404 | 19840 ft | 364 kts | 356° |
| 2026-05-05 17:56 | 49.04900 | 9.40244 | 19841 ft | 364 kts | 356° |
| 2026-05-05 17:56 | 49.07432 | 9.40080 | 19843 ft | 364 kts | 356° |
| 2026-05-05 17:56 | 49.09955 | 9.39908 | 19842 ft | 364 kts | 356° |
| 2026-05-05 17:57 | 49.12484 | 9.39737 | 19837 ft | 363 kts | 356° |
| 2026-05-05 17:57 | 49.15007 | 9.39567 | 19835 ft | 363 kts | 356° |
| 2026-05-05 17:57 | 49.17533 | 9.39401 | 19838 ft | 363 kts | 356° |
| 2026-05-05 17:57 | 49.20055 | 9.39241 | 19840 ft | 363 kts | 356° |
| 2026-05-05 17:58 | 49.22581 | 9.39077 | 19839 ft | 363 kts | 356° |
| 2026-05-05 17:58 | 49.25107 | 9.38912 | 19832 ft | 363 kts | 356° |
| 2026-05-05 17:58 | 49.27632 | 9.38749 | 19836 ft | 363 kts | 356° |
| 2026-05-05 17:58 | 49.30158 | 9.38586 | 19835 ft | 363 kts | 356° |
| 2026-05-05 17:59 | 49.32679 | 9.38417 | 19827 ft | 363 kts | 356° |
| 2026-05-05 17:59 | 49.35193 | 9.38246 | 19480 ft | 361 kts | 356° |
| 2026-05-05 17:59 | 49.37701 | 9.38076 | 18998 ft | 361 kts | 356° |
| 2026-05-05 17:59 | 49.40212 | 9.37909 | 18521 ft | 361 kts | 356° |
| 2026-05-05 18:00 | 49.42721 | 9.37742 | 18043 ft | 361 kts | 356° |
| 2026-05-05 18:00 | 49.45232 | 9.37581 | 17506 ft | 361 kts | 355° |
| 2026-05-05 18:00 | 49.47740 | 9.37417 | 16979 ft | 361 kts | 355° |
| 2026-05-05 18:00 | 49.50242 | 9.37246 | 16448 ft | 355 kts | 355° |
| 2026-05-05 18:01 | 49.52672 | 9.37086 | 15937 ft | 344 kts | 355° |
| 2026-05-05 18:01 | 49.55027 | 9.36933 | 15438 ft | 334 kts | 355° |
| 2026-05-05 18:01 | 49.57320 | 9.36781 | 14945 ft | 327 kts | 354° |
| 2026-05-05 18:01 | 49.59588 | 9.36567 | 14461 ft | 326 kts | 348° |
| 2026-05-05 18:02 | 49.61818 | 9.35904 | 13985 ft | 328 kts | 344° |
| 2026-05-05 18:02 | 49.64054 | 9.35139 | 13497 ft | 330 kts | 344° |
| 2026-05-05 18:02 | 49.66264 | 9.34379 | 12960 ft | 321 kts | 344° |
| 2026-05-05 18:02 | 49.68383 | 9.33652 | 12445 ft | 312 kts | 344° |
| 2026-05-05 18:03 | 49.70479 | 9.32934 | 11934 ft | 306 kts | 344° |
| 2026-05-05 18:03 | 49.72547 | 9.32222 | 11418 ft | 303 kts | 344° |
| 2026-05-05 18:03 | 49.74599 | 9.31511 | 11107 ft | 302 kts | 344° |
| 2026-05-05 18:03 | 49.76650 | 9.30795 | 10861 ft | 303 kts | 344° |
| 2026-05-05 18:04 | 49.78696 | 9.30076 | 10616 ft | 301 kts | 344° |
| 2026-05-05 18:04 | 49.80727 | 9.29368 | 10368 ft | 296 kts | 344° |
| 2026-05-05 18:04 | 49.82715 | 9.28672 | 10131 ft | 290 kts | 345° |
| 2026-05-05 18:04 | 49.84669 | 9.27931 | 9889 ft | 288 kts | 344° |
| 2026-05-05 18:05 | 49.86550 | 9.26949 | 9646 ft | 284 kts | 329° |
| 2026-05-05 18:05 | 49.87694 | 9.25893 | 9467 ft | 283 kts | 325° |
| 2026-05-05 18:05 | 49.89338 | 9.24230 | 9204 ft | 281 kts | 324° |
| 2026-05-05 18:05 | 49.90964 | 9.22559 | 8940 ft | 280 kts | 324° |
| 2026-05-05 18:06 | 49.92560 | 9.20915 | 8683 ft | 279 kts | 324° |
| 2026-05-05 18:06 | 49.93648 | 9.19793 | 8507 ft | 278 kts | 324° |
| 2026-05-05 18:06 | 49.95795 | 9.17575 | 8162 ft | 276 kts | 324° |
| 2026-05-05 18:06 | 49.97391 | 9.15927 | 7900 ft | 275 kts | 324° |
| 2026-05-05 18:07 | 49.98978 | 9.14287 | 7651 ft | 274 kts | 324° |
| 2026-05-05 18:07 | 50.00561 | 9.12653 | 7404 ft | 272 kts | 323° |
| 2026-05-05 18:07 | 50.02115 | 9.11065 | 7158 ft | 270 kts | 324° |
| 2026-05-05 18:07 | 50.03688 | 9.09461 | 6866 ft | 270 kts | 324° |
| 2026-05-05 18:08 | 50.05259 | 9.07852 | 6442 ft | 271 kts | 324° |
| 2026-05-05 18:08 | 50.06839 | 9.06229 | 6018 ft | 272 kts | 324° |
| 2026-05-05 18:08 | 50.08419 | 9.04596 | 5582 ft | 273 kts | 324° |
| 2026-05-05 18:08 | 50.09996 | 9.02958 | 5150 ft | 273 kts | 324° |
| 2026-05-05 18:09 | 50.11556 | 9.01334 | 4718 ft | 265 kts | 324° |
| 2026-05-05 18:09 | 50.13040 | 8.99740 | 4283 ft | 252 kts | 317° |
| 2026-05-05 18:09 | 50.13911 | 8.97568 | 4017 ft | 228 kts | 277° |
| 2026-05-05 18:09 | 50.13638 | 8.95238 | 4017 ft | 223 kts | 236° |
| 2026-05-05 18:10 | 50.12528 | 8.93574 | 4014 ft | 224 kts | 219° |
| 2026-05-05 18:10 | 50.11599 | 8.91672 | 4008 ft | 224 kts | 251° |
| 2026-05-05 18:10 | 50.11216 | 8.89308 | 4015 ft | 224 kts | 252° |
| 2026-05-05 18:10 | 50.10735 | 8.87090 | 4006 ft | 209 kts | 249° |
| 2026-05-05 18:11 | 50.10243 | 8.85006 | 3863 ft | 202 kts | 249° |
| 2026-05-05 18:11 | 50.09758 | 8.82954 | 3617 ft | 201 kts | 249° |
| 2026-05-05 18:11 | 50.09275 | 8.80909 | 3370 ft | 201 kts | 249° |
| 2026-05-05 18:11 | 50.08796 | 8.78875 | 3096 ft | 198 kts | 250° |
| 2026-05-05 18:12 | 50.08329 | 8.76898 | 2855 ft | 189 kts | 250° |
| 2026-05-05 18:12 | 50.07896 | 8.75065 | 2605 ft | 176 kts | 250° |
| 2026-05-05 18:12 | 50.07486 | 8.73298 | 2388 ft | 171 kts | 252° |
| 2026-05-05 18:12 | 50.07186 | 8.71522 | 2137 ft | 169 kts | 259° |
| 2026-05-05 18:13 | 50.06974 | 8.69749 | 1871 ft | 159 kts | 259° |
| 2026-05-05 18:13 | 50.06730 | 8.68158 | 1600 ft | 146 kts | 254° |
| 2026-05-05 18:13 | 50.06426 | 8.66709 | 1381 ft | 137 kts | 250° |
| 2026-05-05 18:13 | 50.06096 | 8.65335 | 1205 ft | 134 kts | 249° |
| 2026-05-05 18:14 | 50.05756 | 8.63985 | 1046 ft | 134 kts | 249° |
| 2026-05-05 18:14 | 50.05441 | 8.62623 | 928 ft | 135 kts | 250° |
| 2026-05-05 18:14 | 50.05118 | 8.61259 | 762 ft | 134 kts | 248° |
| 2026-05-05 18:14 | 50.04799 | 8.59894 | 572 ft | 134 kts | 249° |
| 2026-05-05 18:15 | 50.04476 | 8.58553 | 407 ft | 134 kts | 248° |
| 2026-05-05 18:15 | 50.04173 | 8.57292 | 365 ft | 108 kts | 251° |
| 2026-05-05 18:15 | 50.03973 | 8.56439 | 357 ft | 58 kts | 249° |
| 2026-05-05 18:15 | 50.03889 | 8.56018 | 357 ft | 29 kts | 264° |
| 2026-05-05 18:16 | 50.03895 | 8.55766 | 354 ft | 23 kts | 278° |
| 2026-05-05 18:16 | 50.03912 | 8.55664 | 356 ft | 0 kts | 298° |
| 2026-05-05 18:17 | 50.03916 | 8.55655 | 354 ft | 2 kts | 303° |
| 2026-05-05 18:18 | 50.03924 | 8.55640 | 358 ft | 3 kts | 312° |
| 2026-05-05 18:18 | 50.03966 | 8.55643 | 351 ft | 6 kts | 32° |
| 2026-05-05 18:18 | 50.03992 | 8.55717 | 353 ft | 9 kts | 69° |
| 2026-05-05 18:18 | 50.04011 | 8.55796 | 359 ft | 6 kts | 70° |
| 2026-05-05 18:19 | 50.04024 | 8.55851 | 359 ft | 5 kts | 70° |
| 2026-05-05 18:19 | 50.04037 | 8.55902 | 352 ft | 8 kts | 69° |
| 2026-05-05 18:19 | 50.04064 | 8.56016 | 353 ft | 12 kts | 69° |
| 2026-05-05 18:19 | 50.04093 | 8.56135 | 356 ft | 11 kts | 70° |
| 2026-05-05 18:20 | 50.04119 | 8.56239 | 359 ft | 10 kts | 64° |
| 2026-05-05 18:20 | 50.04179 | 8.56277 | 356 ft | 14 kts | 346° |
| 2026-05-05 18:20 | 50.04250 | 8.56236 | 359 ft | 7 kts | 339° |
| 2026-05-05 18:20 | 50.04289 | 8.56153 | 359 ft | 12 kts | 275° |
| 2026-05-05 18:21 | 50.04341 | 8.56055 | 357 ft | 12 kts | 338° |
| 2026-05-05 18:21 | 50.04414 | 8.56033 | 360 ft | 10 kts | 15° |
| 2026-05-05 18:21 | 50.04455 | 8.56126 | 357 ft | 8 kts | 70° |
| 2026-05-05 18:21 | 50.04472 | 8.56200 | 362 ft | 7 kts | 69° |
| 2026-05-05 18:22 | 50.04491 | 8.56278 | 357 ft | 8 kts | 69° |
| 2026-05-05 18:22 | 50.04501 | 8.56303 | 363 ft | 2 kts | 43° |
| 2026-05-05 18:22 | 50.04516 | 8.56306 | 356 ft | 2 kts | 359° |
| 2026-05-05 18:22 | 50.04542 | 8.56295 | 363 ft | 3 kts | 350° |
| 2026-05-05 18:23 | 50.04558 | 8.56304 | 359 ft | 4 kts | 30° |
| 2026-05-05 18:23 | 50.04561 | 8.56307 | 359 ft | 0 kts | 34° |